Time,TemperatureF,DewpointF,PressureIn,WindDirection,WindDirectionDegrees,WindSpeedMPH,WindSpeedGustMPH,Humidity,HourlyPrecipIn,Conditions,Clouds,dailyrainin,SoftwareType,DateUTC
2013-01-26 00:00:00,20.3,13.8,30.04,South,181,4.9,4.9,76,0.00,,---,0.00,VWS V14.01,2013-01-26 05:00:00,
2013-01-26 00:01:00,20.1,13.7,30.04,South,181,4.9,4.9,76,0.00,,---,0.00,VWS V14.01,2013-01-26 05:01:00,
2013-01-26 00:03:00,20.3,13.8,30.04,South,181,4.9,4.9,76,0.00,,---,0.00,VWS V14.01,2013-01-26 05:03:00,
2013-01-26 00:06:00,20.3,13.8,30.04,South,181,4.9,4.9,76,0.00,,---,0.00,VWS V14.01,2013-01-26 05:06:00,
2013-01-26 00:11:00,20.3,13.8,30.04,South,181,4.9,4.9,76,0.00,,---,0.00,VWS V14.01,2013-01-26 05:11:00,
2013-01-26 00:16:00,20.3,13.8,30.04,South,181,4.9,4.9,76,0.00,,---,0.00,VWS V14.01,2013-01-26 05:16:00,
2013-01-26 00:21:00,20.3,13.8,30.04,South,181,4.9,4.9,76,0.00,,---,0.00,VWS V14.01,2013-01-26 05:21:00,
2013-01-26 00:26:00,20.3,13.8,30.04,South,181,4.9,4.9,76,0.00,,---,0.00,VWS V14.01,2013-01-26 05:26:00,
2013-01-26 00:31:00,20.3,13.8,30.04,South,181,4.9,4.9,76,0.00,,---,0.00,VWS V14.01,2013-01-26 05:31:00,
2013-01-26 00:36:00,20.3,13.8,30.04,South,181,4.9,4.9,76,0.00,,---,0.00,VWS V14.01,2013-01-26 05:36:00,
2013-01-26 00:41:00,20.1,13.7,30.04,South,181,4.9,4.9,76,0.00,,---,0.00,VWS V14.01,2013-01-26 05:41:00,
2013-01-26 00:46:00,20.3,13.8,30.04,South,181,4.9,4.9,76,0.00,,---,0.00,VWS V14.01,2013-01-26 05:46:00,
2013-01-26 00:51:00,20.3,13.8,30.04,South,181,4.9,4.9,76,0.00,,---,0.00,VWS V14.01,2013-01-26 05:51:00,
2013-01-26 00:56:00,20.3,14.2,30.04,South,181,4.9,4.9,77,0.00,,---,0.00,VWS V14.01,2013-01-26 05:56:00,
2013-01-26 01:01:00,20.3,14.2,30.04,South,181,4.9,4.9,77,0.00,,---,0.00,VWS V14.01,2013-01-26 06:01:00,
2013-01-26 01:07:00,20.3,14.2,30.04,South,181,4.9,4.9,77,0.00,,---,0.00,VWS V14.01,2013-01-26 06:07:00,
2013-01-26 01:12:00,20.3,14.2,30.04,South,181,4.9,4.9,77,0.00,,---,0.00,VWS V14.01,2013-01-26 06:12:00,
2013-01-26 01:17:00,20.3,14.2,30.04,South,181,4.9,4.9,77,0.00,,---,0.00,VWS V14.01,2013-01-26 06:17:00,
2013-01-26 01:22:00,20.5,14.3,30.04,South,181,4.9,4.9,77,0.00,,---,0.00,VWS V14.01,2013-01-26 06:22:00,
2013-01-26 01:27:00,20.5,14.3,30.04,South,181,4.9,4.9,77,0.00,,---,0.00,VWS V14.01,2013-01-26 06:27:00,
2013-01-26 01:32:00,20.5,14.3,30.04,South,181,4.9,4.9,77,0.00,,---,0.00,VWS V14.01,2013-01-26 06:32:00,
2013-01-26 01:37:00,20.5,14.6,30.04,South,181,4.9,4.9,78,0.00,,---,0.00,VWS V14.01,2013-01-26 06:37:00,
2013-01-26 01:42:00,20.5,14.6,30.04,South,181,4.9,4.9,78,0.00,,---,0.00,VWS V14.01,2013-01-26 06:42:00,
2013-01-26 01:47:00,20.5,14.6,30.04,South,181,4.9,4.9,78,0.00,,---,0.00,VWS V14.01,2013-01-26 06:47:00,
2013-01-26 01:52:00,20.5,14.6,30.04,South,181,4.9,4.9,78,0.00,,---,0.00,VWS V14.01,2013-01-26 06:52:00,
2013-01-26 01:57:00,20.7,14.8,30.04,South,181,4.9,4.9,78,0.00,,---,0.00,VWS V14.01,2013-01-26 06:57:00,
2013-01-26 02:02:00,20.7,14.8,30.04,South,181,4.9,4.9,78,0.00,,---,0.00,VWS V14.01,2013-01-26 07:02:00,
2013-01-26 02:07:00,20.8,15.3,30.04,South,181,4.9,4.9,79,0.00,,---,0.00,VWS V14.01,2013-01-26 07:07:00,
2013-01-26 02:12:00,20.8,15.3,30.04,South,181,4.9,4.9,79,0.00,,---,0.00,VWS V14.01,2013-01-26 07:12:00,
2013-01-26 02:17:00,20.8,15.3,30.07,South,181,4.9,4.9,79,0.00,,---,0.00,VWS V14.01,2013-01-26 07:17:00,
2013-01-26 02:22:00,21.0,15.5,30.07,South,181,4.9,4.9,79,0.00,,---,0.00,VWS V14.01,2013-01-26 07:22:00,
2013-01-26 02:27:00,21.0,15.5,30.07,South,181,4.9,4.9,79,0.00,,---,0.00,VWS V14.01,2013-01-26 07:27:00,
2013-01-26 02:32:00,21.0,15.5,30.07,South,181,4.9,4.9,79,0.00,,---,0.00,VWS V14.01,2013-01-26 07:32:00,
2013-01-26 02:37:00,21.2,15.7,30.07,South,181,4.9,4.9,79,0.00,,---,0.00,VWS V14.01,2013-01-26 07:37:00,
2013-01-26 02:42:00,21.2,15.7,30.07,South,181,4.9,4.9,79,0.00,,---,0.00,VWS V14.01,2013-01-26 07:42:00,
2013-01-26 02:47:00,21.2,15.7,30.07,South,181,4.9,4.9,79,0.00,,---,0.00,VWS V14.01,2013-01-26 07:47:00,
2013-01-26 02:52:00,21.4,15.9,30.07,South,181,4.9,4.9,79,0.00,,---,0.00,VWS V14.01,2013-01-26 07:52:00,
2013-01-26 02:57:00,21.4,15.9,30.07,South,181,4.9,4.9,79,0.00,,---,0.00,VWS V14.01,2013-01-26 07:57:00,
2013-01-26 03:02:00,21.4,15.5,30.07,South,181,4.9,4.9,78,0.00,,---,0.00,VWS V14.01,2013-01-26 08:02:00,
2013-01-26 03:07:00,21.4,15.5,30.07,South,181,4.9,4.9,78,0.00,,---,0.00,VWS V14.01,2013-01-26 08:07:00,
2013-01-26 03:12:00,21.4,15.5,30.07,South,181,4.9,4.9,78,0.00,,---,0.00,VWS V14.01,2013-01-26 08:12:00,
2013-01-26 03:17:00,21.4,15.5,30.07,South,181,4.9,4.9,78,0.00,,---,0.00,VWS V14.01,2013-01-26 08:17:00,
2013-01-26 03:22:00,21.4,15.5,30.07,South,181,4.9,4.9,78,0.00,,---,0.00,VWS V14.01,2013-01-26 08:22:00,
2013-01-26 03:27:00,21.4,15.5,30.07,South,181,4.9,4.9,78,0.00,,---,0.00,VWS V14.01,2013-01-26 08:27:00,
2013-01-26 03:32:00,21.4,15.5,30.07,South,181,4.9,4.9,78,0.00,,---,0.00,VWS V14.01,2013-01-26 08:32:00,
2013-01-26 03:37:00,21.6,15.7,30.07,South,181,4.9,4.9,78,0.00,,---,0.00,VWS V14.01,2013-01-26 08:37:00,
2013-01-26 03:42:00,21.6,15.7,30.07,South,181,4.9,4.9,78,0.00,,---,0.00,VWS V14.01,2013-01-26 08:42:00,
2013-01-26 03:47:00,21.6,15.7,30.07,South,181,4.9,4.9,78,0.00,,---,0.00,VWS V14.01,2013-01-26 08:47:00,
2013-01-26 03:52:00,21.6,15.7,30.07,South,181,4.9,4.9,78,0.00,,---,0.00,VWS V14.01,2013-01-26 08:52:00,
2013-01-26 03:57:00,21.6,15.7,30.07,South,181,4.9,4.9,78,0.00,,---,0.00,VWS V14.01,2013-01-26 08:57:00,
2013-01-26 04:02:00,21.6,15.7,30.10,South,181,4.9,4.9,78,0.00,,---,0.00,VWS V14.01,2013-01-26 09:02:00,
2013-01-26 04:07:00,21.7,15.9,30.10,South,181,4.9,4.9,78,0.00,,---,0.00,VWS V14.01,2013-01-26 09:07:00,
2013-01-26 04:12:00,21.6,15.7,30.10,South,181,4.9,4.9,78,0.00,,---,0.00,VWS V14.01,2013-01-26 09:12:00,
2013-01-26 04:17:00,21.6,15.7,30.10,South,181,4.9,4.9,78,0.00,,---,0.00,VWS V14.01,2013-01-26 09:17:00,
2013-01-26 04:22:00,21.6,15.7,30.10,South,181,4.9,4.9,78,0.00,,---,0.00,VWS V14.01,2013-01-26 09:22:00,
2013-01-26 04:27:00,21.6,15.7,30.10,South,181,4.9,4.9,78,0.00,,---,0.00,VWS V14.01,2013-01-26 09:27:00,
2013-01-26 04:33:00,21.4,15.5,30.10,South,181,4.9,4.9,78,0.00,,---,0.00,VWS V14.01,2013-01-26 09:33:00,
2013-01-26 04:38:00,21.6,15.7,30.10,South,181,4.9,4.9,78,0.00,,---,0.00,VWS V14.01,2013-01-26 09:38:00,
2013-01-26 04:43:00,21.6,15.7,30.10,South,181,4.9,4.9,78,0.00,,---,0.00,VWS V14.01,2013-01-26 09:43:00,
2013-01-26 04:48:00,21.6,15.7,30.10,South,181,4.9,4.9,78,0.00,,---,0.00,VWS V14.01,2013-01-26 09:48:00,
2013-01-26 04:53:00,21.6,15.7,30.10,South,181,4.9,4.9,78,0.00,,---,0.00,VWS V14.01,2013-01-26 09:53:00,
2013-01-26 04:58:00,21.6,15.4,30.10,South,181,4.9,4.9,77,0.00,,---,0.00,VWS V14.01,2013-01-26 09:58:00,
2013-01-26 05:03:00,21.6,15.4,30.10,South,181,4.9,4.9,77,0.00,,---,0.00,VWS V14.01,2013-01-26 10:03:00,
2013-01-26 05:08:00,21.7,15.6,30.10,South,181,4.9,4.9,77,0.00,,---,0.00,VWS V14.01,2013-01-26 10:08:00,
2013-01-26 05:13:00,21.9,15.7,30.10,South,181,4.9,4.9,77,0.00,,---,0.00,VWS V14.01,2013-01-26 10:13:00,
2013-01-26 05:18:00,21.9,15.4,30.10,South,181,4.9,4.9,76,0.00,,---,0.00,VWS V14.01,2013-01-26 10:18:00,
2013-01-26 05:23:00,21.9,15.4,30.10,South,181,4.9,4.9,76,0.00,,---,0.00,VWS V14.01,2013-01-26 10:23:00,
2013-01-26 05:28:00,21.9,15.1,30.10,South,181,4.9,4.9,75,0.00,,---,0.00,VWS V14.01,2013-01-26 10:28:00,
2013-01-26 05:33:00,21.9,15.1,30.10,South,181,4.9,4.9,75,0.00,,---,0.00,VWS V14.01,2013-01-26 10:33:00,
2013-01-26 05:38:00,21.9,14.7,30.10,South,181,4.9,4.9,73,0.00,,---,0.00,VWS V14.01,2013-01-26 10:38:00,
2013-01-26 05:43:00,21.9,14.7,30.10,South,181,4.9,4.9,73,0.00,,---,0.00,VWS V14.01,2013-01-26 10:43:00,
2013-01-26 05:48:00,21.7,14.2,30.10,South,181,4.9,4.9,72,0.00,,---,0.00,VWS V14.01,2013-01-26 10:48:00,
2013-01-26 05:53:00,21.7,14.2,30.10,South,181,4.9,4.9,72,0.00,,---,0.00,VWS V14.01,2013-01-26 10:53:00,
2013-01-26 05:58:00,21.7,14.2,30.10,South,181,4.9,4.9,72,0.00,,---,0.00,VWS V14.01,2013-01-26 10:58:00,
2013-01-26 06:03:00,21.7,13.9,30.13,South,181,4.9,4.9,71,0.00,,---,0.00,VWS V14.01,2013-01-26 11:03:00,
2013-01-26 06:08:00,21.7,13.9,30.13,South,181,4.9,4.9,71,0.00,,---,0.00,VWS V14.01,2013-01-26 11:08:00,
2013-01-26 06:13:00,21.7,13.5,30.13,South,181,4.9,4.9,70,0.00,,---,0.00,VWS V14.01,2013-01-26 11:13:00,
2013-01-26 06:18:00,21.6,13.4,30.13,South,181,4.9,4.9,70,0.00,,---,0.00,VWS V14.01,2013-01-26 11:18:00,
2013-01-26 06:23:00,21.6,13.4,30.13,South,181,4.9,4.9,70,0.00,,---,0.00,VWS V14.01,2013-01-26 11:23:00,
2013-01-26 06:28:00,21.6,13.0,30.13,South,181,4.9,4.9,69,0.00,,---,0.00,VWS V14.01,2013-01-26 11:28:00,
2013-01-26 06:33:00,21.6,13.0,30.13,South,181,4.9,4.9,69,0.00,,---,0.00,VWS V14.01,2013-01-26 11:33:00,
2013-01-26 06:38:00,21.6,13.0,30.13,South,181,4.9,4.9,69,0.00,,---,0.00,VWS V14.01,2013-01-26 11:38:00,
2013-01-26 06:43:00,21.6,12.7,30.13,South,181,4.9,4.9,68,0.00,,---,0.00,VWS V14.01,2013-01-26 11:43:00,
2013-01-26 06:48:00,21.4,12.5,30.16,South,181,4.9,4.9,68,0.00,,---,0.00,VWS V14.01,2013-01-26 11:48:00,
2013-01-26 06:53:00,21.4,12.5,30.16,South,181,4.9,4.9,68,0.00,,---,0.00,VWS V14.01,2013-01-26 11:53:00,
2013-01-26 06:58:00,21.4,12.1,30.16,South,181,4.9,4.9,67,0.00,,---,0.00,VWS V14.01,2013-01-26 11:58:00,
2013-01-26 07:03:00,21.4,12.1,30.16,South,181,4.9,4.9,67,0.00,,---,0.00,VWS V14.01,2013-01-26 12:03:00,
2013-01-26 07:08:00,21.4,12.1,30.16,South,181,4.9,4.9,67,0.00,,---,0.00,VWS V14.01,2013-01-26 12:08:00,
2013-01-26 07:13:00,21.4,11.8,30.16,South,181,4.9,4.9,66,0.00,,---,0.00,VWS V14.01,2013-01-26 12:13:00,
2013-01-26 07:18:00,21.4,11.8,30.16,South,181,4.9,4.9,66,0.00,,---,0.00,VWS V14.01,2013-01-26 12:18:00,
2013-01-26 07:23:00,21.4,11.8,30.16,South,181,4.9,4.9,66,0.00,,---,0.00,VWS V14.01,2013-01-26 12:23:00,
2013-01-26 07:28:00,21.4,11.8,30.16,South,181,4.9,4.9,66,0.00,,---,0.00,VWS V14.01,2013-01-26 12:28:00,
2013-01-26 07:33:00,21.4,11.8,30.16,South,181,4.9,4.9,66,0.00,,---,0.00,VWS V14.01,2013-01-26 12:33:00,
2013-01-26 07:38:00,21.4,11.8,30.16,South,181,4.9,4.9,66,0.00,,---,0.00,VWS V14.01,2013-01-26 12:38:00,
2013-01-26 07:43:00,21.2,11.6,30.16,South,181,4.9,4.9,66,0.00,,---,0.00,VWS V14.01,2013-01-26 12:43:00,
2013-01-26 07:48:00,21.4,11.8,30.19,South,181,4.9,4.9,66,0.00,,---,0.00,VWS V14.01,2013-01-26 12:48:00,
2013-01-26 07:54:00,21.4,11.8,30.19,South,181,4.9,4.9,66,0.00,,---,0.00,VWS V14.01,2013-01-26 12:54:00,
2013-01-26 07:59:00,21.4,11.4,30.19,South,181,4.9,4.9,65,0.00,,---,0.00,VWS V14.01,2013-01-26 12:59:00,
2013-01-26 08:04:00,21.4,11.4,30.19,South,181,4.9,4.9,65,0.00,,---,0.00,VWS V14.01,2013-01-26 13:04:00,
2013-01-26 08:09:00,21.4,11.4,30.19,South,181,4.9,4.9,65,0.00,,---,0.00,VWS V14.01,2013-01-26 13:09:00,
2013-01-26 08:14:00,21.4,11.4,30.19,South,181,4.9,4.9,65,0.00,,---,0.00,VWS V14.01,2013-01-26 13:14:00,
2013-01-26 08:19:00,21.4,11.4,30.19,South,181,4.9,4.9,65,0.00,,---,0.00,VWS V14.01,2013-01-26 13:19:00,
2013-01-26 08:24:00,21.4,11.4,30.19,South,181,4.9,4.9,65,0.00,,---,0.00,VWS V14.01,2013-01-26 13:24:00,
2013-01-26 08:29:00,21.6,11.6,30.19,South,181,4.9,4.9,65,0.00,,---,0.00,VWS V14.01,2013-01-26 13:29:00,
2013-01-26 08:34:00,21.7,11.7,30.19,South,181,4.9,4.9,65,0.00,,---,0.00,VWS V14.01,2013-01-26 13:34:00,
2013-01-26 08:39:00,21.9,11.5,30.19,South,181,4.9,4.9,64,0.00,,---,0.00,VWS V14.01,2013-01-26 13:39:00,
2013-01-26 08:44:00,21.9,11.5,30.19,South,181,4.9,4.9,64,0.00,,---,0.00,VWS V14.01,2013-01-26 13:44:00,
2013-01-26 08:49:00,22.1,11.3,30.19,South,181,4.9,4.9,63,0.00,,---,0.00,VWS V14.01,2013-01-26 13:49:00,
2013-01-26 08:54:00,22.3,11.5,30.19,South,181,4.9,4.9,63,0.00,,---,0.00,VWS V14.01,2013-01-26 13:54:00,
2013-01-26 08:59:00,22.5,11.3,30.19,South,181,4.9,4.9,62,0.00,,---,0.00,VWS V14.01,2013-01-26 13:59:00,
2013-01-26 09:04:00,22.5,11.3,30.19,South,181,4.9,4.9,62,0.00,,---,0.00,VWS V14.01,2013-01-26 14:04:00,
2013-01-26 09:09:00,22.6,11.4,30.19,South,181,4.9,4.9,62,0.00,,---,0.00,VWS V14.01,2013-01-26 14:09:00,
2013-01-26 09:14:00,22.6,11.0,30.22,South,181,4.9,4.9,60,0.00,,---,0.00,VWS V14.01,2013-01-26 14:14:00,
2013-01-26 09:19:00,22.8,10.8,30.22,South,181,4.9,4.9,59,0.00,,---,0.00,VWS V14.01,2013-01-26 14:19:00,
2013-01-26 09:24:00,23.0,11.0,30.22,South,181,4.9,4.9,59,0.00,,---,0.00,VWS V14.01,2013-01-26 14:24:00,
2013-01-26 09:29:00,23.2,10.7,30.22,South,181,4.9,4.9,58,0.00,,---,0.00,VWS V14.01,2013-01-26 14:29:00,
2013-01-26 09:34:00,23.2,10.7,30.22,South,181,4.9,4.9,58,0.00,,---,0.00,VWS V14.01,2013-01-26 14:34:00,
2013-01-26 09:39:00,23.4,10.5,30.22,South,181,4.9,4.9,57,0.00,,---,0.00,VWS V14.01,2013-01-26 14:39:00,
2013-01-26 09:44:00,23.5,10.6,30.22,South,181,4.9,4.9,57,0.00,,---,0.00,VWS V14.01,2013-01-26 14:44:00,
2013-01-26 09:49:00,23.7,10.4,30.22,South,181,4.9,4.9,56,0.00,,---,0.00,VWS V14.01,2013-01-26 14:49:00,
2013-01-26 09:54:00,23.9,10.6,30.22,South,181,4.9,4.9,56,0.00,,---,0.00,VWS V14.01,2013-01-26 14:54:00,
2013-01-26 09:59:00,24.1,10.7,30.22,South,181,4.9,4.9,56,0.00,,---,0.00,VWS V14.01,2013-01-26 14:59:00,
2013-01-26 10:04:00,24.3,10.0,30.22,South,181,4.9,4.9,54,0.00,,---,0.00,VWS V14.01,2013-01-26 15:04:00,
2013-01-26 10:09:00,24.4,9.7,30.22,South,181,4.9,4.9,53,0.00,,---,0.00,VWS V14.01,2013-01-26 15:09:00,
2013-01-26 10:14:00,24.6,9.9,30.24,South,181,4.9,4.9,53,0.00,,---,0.00,VWS V14.01,2013-01-26 15:14:00,
2013-01-26 10:19:00,25.0,9.8,30.24,South,181,4.9,4.9,52,0.00,,---,0.00,VWS V14.01,2013-01-26 15:19:00,
2013-01-26 10:24:00,25.3,10.1,30.24,South,181,4.9,4.9,52,0.00,,---,0.00,VWS V14.01,2013-01-26 15:24:00,
2013-01-26 10:30:00,26.1,10.3,30.24,South,181,4.9,4.9,51,0.00,,---,0.00,VWS V14.01,2013-01-26 15:30:00,
2013-01-26 10:35:00,26.1,8.9,30.24,South,181,4.9,4.9,48,0.00,,---,0.00,VWS V14.01,2013-01-26 15:35:00,
2013-01-26 10:40:00,26.6,9.3,30.24,South,181,4.9,4.9,48,0.00,,---,0.00,VWS V14.01,2013-01-26 15:40:00,
2013-01-26 10:45:00,26.6,8.8,30.24,South,181,4.9,4.9,46,0.00,,---,0.00,VWS V14.01,2013-01-26 15:45:00,
2013-01-26 10:50:00,26.8,9.0,30.24,South,181,4.9,4.9,46,0.00,,---,0.00,VWS V14.01,2013-01-26 15:50:00,
2013-01-26 10:55:00,27.3,9.5,30.24,South,181,4.9,4.9,46,0.00,,---,0.00,VWS V14.01,2013-01-26 15:55:00,
2013-01-26 11:00:00,27.5,9.1,30.24,South,181,4.9,4.9,45,0.00,,---,0.00,VWS V14.01,2013-01-26 16:00:00,
2013-01-26 11:05:00,28.0,9.6,30.24,South,181,4.9,4.9,45,0.00,,---,0.00,VWS V14.01,2013-01-26 16:05:00,
2013-01-26 11:10:00,28.0,9.1,30.24,South,181,4.9,4.9,44,0.00,,---,0.00,VWS V14.01,2013-01-26 16:10:00,
2013-01-26 11:15:00,28.2,9.3,30.27,South,181,4.9,4.9,44,0.00,,---,0.00,VWS V14.01,2013-01-26 16:15:00,
2013-01-26 11:20:00,28.2,9.3,30.27,South,181,4.9,4.9,44,0.00,,---,0.00,VWS V14.01,2013-01-26 16:20:00,
2013-01-26 11:25:00,28.4,9.4,30.27,South,181,4.9,4.9,44,0.00,,---,0.00,VWS V14.01,2013-01-26 16:25:00,
2013-01-26 11:30:00,28.9,8.2,30.27,South,181,4.9,4.9,41,0.00,,---,0.00,VWS V14.01,2013-01-26 16:30:00,
2013-01-26 11:35:00,29.7,7.7,30.27,South,181,4.9,4.9,39,0.00,,---,0.00,VWS V14.01,2013-01-26 16:35:00,
2013-01-26 11:40:00,30.0,7.4,30.27,South,181,4.9,4.9,38,0.00,,---,0.00,VWS V14.01,2013-01-26 16:40:00,
2013-01-26 11:45:00,30.0,7.4,30.27,South,181,4.9,4.9,38,0.00,,---,0.00,VWS V14.01,2013-01-26 16:45:00,
2013-01-26 11:50:00,30.6,7.2,30.27,South,181,4.9,4.9,37,0.00,,---,0.00,VWS V14.01,2013-01-26 16:50:00,
2013-01-26 11:55:00,31.5,6.7,30.27,South,181,4.9,4.9,35,0.00,,---,0.00,VWS V14.01,2013-01-26 16:55:00,
2013-01-26 12:00:00,32.2,7.3,30.27,South,181,4.9,4.9,35,0.00,,---,0.00,VWS V14.01,2013-01-26 17:00:00,
2013-01-26 12:05:00,33.1,8.1,30.27,South,181,4.9,4.9,35,0.00,,---,0.00,VWS V14.01,2013-01-26 17:05:00,
2013-01-26 12:10:00,33.4,7.8,30.27,South,181,4.9,4.9,33,0.00,,---,0.00,VWS V14.01,2013-01-26 17:10:00,
2013-01-26 12:15:00,33.4,7.8,30.27,South,181,4.9,4.9,33,0.00,,---,0.00,VWS V14.01,2013-01-26 17:15:00,
2013-01-26 12:20:00,34.2,8.4,30.27,South,181,4.9,4.9,33,0.00,,---,0.00,VWS V14.01,2013-01-26 17:20:00,
2013-01-26 12:26:00,33.8,7.3,30.27,South,181,4.9,4.9,32,0.00,,---,0.00,VWS V14.01,2013-01-26 17:26:00,
2013-01-26 12:31:00,32.7,7.1,30.27,South,181,4.9,4.9,33,0.00,,---,0.00,VWS V14.01,2013-01-26 17:31:00,
2013-01-26 12:36:00,32.4,6.8,30.27,South,181,4.9,4.9,33,0.00,,---,0.00,VWS V14.01,2013-01-26 17:36:00,
2013-01-26 12:41:00,31.8,6.3,30.27,South,181,4.9,4.9,33,0.00,,---,0.00,VWS V14.01,2013-01-26 17:41:00,
2013-01-26 12:46:00,30.9,5.5,30.27,South,181,4.9,4.9,33,0.00,,---,0.00,VWS V14.01,2013-01-26 17:46:00,
2013-01-26 12:51:00,30.7,5.4,30.27,South,181,4.9,4.9,33,0.00,,---,0.00,VWS V14.01,2013-01-26 17:51:00,
2013-01-26 12:56:00,31.1,5.7,30.27,South,181,4.9,4.9,33,0.00,,---,0.00,VWS V14.01,2013-01-26 17:56:00,
2013-01-26 13:01:00,31.1,5.7,30.27,South,181,4.9,4.9,33,0.00,,---,0.00,VWS V14.01,2013-01-26 18:01:00,
2013-01-26 13:06:00,30.9,5.5,30.27,South,181,4.9,4.9,33,0.00,,---,0.00,VWS V14.01,2013-01-26 18:06:00,
2013-01-26 13:11:00,30.4,5.1,30.27,South,181,4.9,4.9,33,0.00,,---,0.00,VWS V14.01,2013-01-26 18:11:00,
2013-01-26 13:16:00,30.4,5.1,30.27,South,181,4.9,4.9,33,0.00,,---,0.00,VWS V14.01,2013-01-26 18:16:00,
2013-01-26 13:21:00,30.4,5.1,30.27,South,181,4.9,4.9,33,0.00,,---,0.00,VWS V14.01,2013-01-26 18:21:00,
2013-01-26 13:26:00,30.2,5.6,30.27,South,181,4.9,4.9,35,0.00,,---,0.00,VWS V14.01,2013-01-26 18:26:00,
2013-01-26 13:31:00,29.8,5.3,30.27,South,181,4.9,4.9,35,0.00,,---,0.00,VWS V14.01,2013-01-26 18:31:00,
2013-01-26 13:36:00,29.8,5.3,30.27,South,181,4.9,4.9,35,0.00,,---,0.00,VWS V14.01,2013-01-26 18:36:00,
2013-01-26 13:41:00,31.1,5.7,30.27,South,181,4.9,4.9,33,0.00,,---,0.00,VWS V14.01,2013-01-26 18:41:00,
2013-01-26 13:46:00,31.8,6.3,30.27,South,181,4.9,4.9,33,0.00,,---,0.00,VWS V14.01,2013-01-26 18:46:00,
2013-01-26 13:51:00,31.8,6.3,30.27,South,181,4.9,4.9,33,0.00,,---,0.00,VWS V14.01,2013-01-26 18:51:00,
2013-01-26 13:56:00,31.6,6.2,30.27,South,181,4.9,4.9,33,0.00,,---,0.00,VWS V14.01,2013-01-26 18:56:00,
2013-01-26 14:01:00,31.1,5.7,30.27,South,181,4.9,4.9,33,0.00,,---,0.00,VWS V14.01,2013-01-26 19:01:00,
2013-01-26 14:06:00,30.7,5.4,30.27,South,181,4.9,4.9,33,0.00,,---,0.00,VWS V14.01,2013-01-26 19:06:00,
2013-01-26 14:11:00,30.6,5.2,30.27,South,181,4.9,4.9,33,0.00,,---,0.00,VWS V14.01,2013-01-26 19:11:00,
2013-01-26 14:16:00,30.6,5.2,30.30,South,181,4.9,4.9,33,0.00,,---,0.00,VWS V14.01,2013-01-26 19:16:00,
2013-01-26 14:21:00,30.4,5.1,30.30,South,181,4.9,4.9,33,0.00,,---,0.00,VWS V14.01,2013-01-26 19:21:00,
2013-01-26 14:26:00,30.4,5.1,30.30,South,181,4.9,4.9,33,0.00,,---,0.00,VWS V14.01,2013-01-26 19:26:00,
2013-01-26 14:31:00,30.4,5.7,30.30,South,181,4.9,4.9,35,0.00,,---,0.00,VWS V14.01,2013-01-26 19:31:00,
2013-01-26 14:36:00,30.2,5.6,30.30,South,181,4.9,4.9,35,0.00,,---,0.00,VWS V14.01,2013-01-26 19:36:00,
2013-01-26 14:41:00,29.8,5.3,30.30,South,181,4.9,4.9,35,0.00,,---,0.00,VWS V14.01,2013-01-26 19:41:00,
2013-01-26 14:46:00,29.8,5.3,30.30,South,181,4.9,4.9,35,0.00,,---,0.00,VWS V14.01,2013-01-26 19:46:00,
2013-01-26 14:51:00,29.8,5.3,30.30,South,181,4.9,4.9,35,0.00,,---,0.00,VWS V14.01,2013-01-26 19:51:00,
2013-01-26 14:56:00,29.8,5.3,30.30,South,181,4.9,4.9,35,0.00,,---,0.00,VWS V14.01,2013-01-26 19:56:00,
2013-01-26 15:01:00,29.8,5.3,30.30,South,181,4.9,4.9,35,0.00,,---,0.00,VWS V14.01,2013-01-26 20:01:00,
2013-01-26 15:06:00,29.5,4.9,30.30,South,181,4.9,4.9,35,0.00,,---,0.00,VWS V14.01,2013-01-26 20:06:00,
2013-01-26 15:11:00,29.5,4.9,30.30,South,181,4.9,4.9,35,0.00,,---,0.00,VWS V14.01,2013-01-26 20:11:00,
2013-01-26 15:17:00,29.5,4.9,30.30,South,181,4.9,4.9,35,0.00,,---,0.00,VWS V14.01,2013-01-26 20:17:00,
2013-01-26 15:22:00,29.1,5.3,30.30,South,181,4.9,4.9,36,0.00,,---,0.00,VWS V14.01,2013-01-26 20:22:00,
2013-01-26 15:27:00,29.1,4.6,30.30,South,181,4.9,4.9,35,0.00,,---,0.00,VWS V14.01,2013-01-26 20:27:00,
2013-01-26 15:32:00,29.3,5.4,30.30,South,181,4.9,4.9,36,0.00,,---,0.00,VWS V14.01,2013-01-26 20:32:00,
2013-01-26 15:37:00,29.1,4.6,30.30,South,181,4.9,4.9,35,0.00,,---,0.00,VWS V14.01,2013-01-26 20:37:00,
2013-01-26 15:42:00,28.8,5.0,30.30,South,181,4.9,4.9,36,0.00,,---,0.00,VWS V14.01,2013-01-26 20:42:00,
2013-01-26 15:47:00,28.6,4.8,30.30,South,181,4.9,4.9,36,0.00,,---,0.00,VWS V14.01,2013-01-26 20:47:00,
2013-01-26 15:52:00,28.4,5.3,30.30,South,181,4.9,4.9,37,0.00,,---,0.00,VWS V14.01,2013-01-26 20:52:00,
2013-01-26 15:57:00,28.4,5.3,30.30,South,181,4.9,4.9,37,0.00,,---,0.00,VWS V14.01,2013-01-26 20:57:00,
2013-01-26 16:02:00,28.2,4.5,30.33,South,181,4.9,4.9,36,0.00,,---,0.00,VWS V14.01,2013-01-26 21:02:00,
2013-01-26 16:07:00,28.2,4.5,30.33,South,181,4.9,4.9,36,0.00,,---,0.00,VWS V14.01,2013-01-26 21:07:00,
2013-01-26 16:12:00,28.0,5.0,30.33,South,181,4.9,4.9,37,0.00,,---,0.00,VWS V14.01,2013-01-26 21:12:00,
2013-01-26 16:17:00,28.0,5.0,30.33,South,181,4.9,4.9,37,0.00,,---,0.00,VWS V14.01,2013-01-26 21:17:00,
2013-01-26 16:22:00,27.9,4.8,30.33,South,181,4.9,4.9,37,0.00,,---,0.00,VWS V14.01,2013-01-26 21:22:00,
2013-01-26 16:27:00,27.7,5.3,30.33,South,181,4.9,4.9,38,0.00,,---,0.00,VWS V14.01,2013-01-26 21:27:00,
2013-01-26 16:32:00,27.5,5.1,30.33,South,181,4.9,4.9,38,0.00,,---,0.00,VWS V14.01,2013-01-26 21:32:00,
2013-01-26 16:37:00,27.3,5.0,30.33,South,181,4.9,4.9,38,0.00,,---,0.00,VWS V14.01,2013-01-26 21:37:00,
2013-01-26 16:42:00,27.1,5.4,30.33,South,181,4.9,4.9,39,0.00,,---,0.00,VWS V14.01,2013-01-26 21:42:00,
2013-01-26 16:47:00,27.1,6.0,30.30,South,181,4.9,4.9,40,0.00,,---,0.00,VWS V14.01,2013-01-26 21:47:00,
2013-01-26 16:53:00,27.0,6.4,30.30,South,181,4.9,4.9,41,0.00,,---,0.00,VWS V14.01,2013-01-26 21:53:00,
2013-01-26 16:58:00,27.0,6.4,30.30,South,181,4.9,4.9,41,0.00,,---,0.00,VWS V14.01,2013-01-26 21:58:00,
2013-01-26 17:03:00,26.8,6.8,30.33,South,181,4.9,4.9,42,0.00,,---,0.00,VWS V14.01,2013-01-26 22:03:00,
2013-01-26 17:08:00,26.6,7.2,30.33,South,181,4.9,4.9,43,0.00,,---,0.00,VWS V14.01,2013-01-26 22:08:00,
2013-01-26 17:13:00,26.4,7.6,30.33,South,181,4.9,4.9,44,0.00,,---,0.00,VWS V14.01,2013-01-26 22:13:00,
2013-01-26 17:18:00,26.2,7.4,30.33,South,181,4.9,4.9,44,0.00,,---,0.00,VWS V14.01,2013-01-26 22:18:00,
2013-01-26 17:23:00,26.1,7.3,30.33,South,181,4.9,4.9,44,0.00,,---,0.00,VWS V14.01,2013-01-26 22:23:00,
2013-01-26 17:28:00,26.1,7.8,30.33,South,181,4.9,4.9,45,0.00,,---,0.00,VWS V14.01,2013-01-26 22:28:00,
2013-01-26 17:33:00,25.9,7.7,30.36,South,181,4.9,4.9,45,0.00,,---,0.00,VWS V14.01,2013-01-26 22:33:00,
2013-01-26 17:38:00,25.9,7.7,30.36,South,181,4.9,4.9,45,0.00,,---,0.00,VWS V14.01,2013-01-26 22:38:00,
2013-01-26 17:43:00,25.7,7.5,30.36,South,181,4.9,4.9,45,0.00,,---,0.00,VWS V14.01,2013-01-26 22:43:00,
2013-01-26 17:48:00,25.5,7.3,30.36,South,181,4.9,4.9,45,0.00,,---,0.00,VWS V14.01,2013-01-26 22:48:00,
2013-01-26 17:53:00,25.5,7.3,30.36,South,181,4.9,4.9,45,0.00,,---,0.00,VWS V14.01,2013-01-26 22:53:00,
2013-01-26 17:58:00,25.3,7.2,30.36,South,181,4.9,4.9,45,0.00,,---,0.00,VWS V14.01,2013-01-26 22:58:00,
2013-01-26 18:03:00,25.3,7.2,30.36,South,181,4.9,4.9,45,0.00,,---,0.00,VWS V14.01,2013-01-26 23:03:00,
2013-01-26 18:08:00,25.2,7.5,30.36,South,181,4.9,4.9,46,0.00,,---,0.00,VWS V14.01,2013-01-26 23:08:00,
2013-01-26 18:13:00,25.2,7.5,30.36,South,181,4.9,4.9,46,0.00,,---,0.00,VWS V14.01,2013-01-26 23:13:00,
2013-01-26 18:18:00,25.0,7.3,30.36,South,181,4.9,4.9,46,0.00,,---,0.00,VWS V14.01,2013-01-26 23:18:00,
2013-01-26 18:23:00,25.0,7.3,30.36,South,181,4.9,4.9,46,0.00,,---,0.00,VWS V14.01,2013-01-26 23:23:00,
2013-01-26 18:28:00,24.8,7.2,30.36,South,181,4.9,4.9,46,0.00,,---,0.00,VWS V14.01,2013-01-26 23:28:00,
2013-01-26 18:33:00,24.8,7.7,30.39,South,181,4.9,4.9,48,0.00,,---,0.00,VWS V14.01,2013-01-26 23:33:00,
2013-01-26 18:38:00,24.8,7.7,30.39,South,181,4.9,4.9,48,0.00,,---,0.00,VWS V14.01,2013-01-26 23:38:00,
2013-01-26 18:43:00,24.8,7.7,30.39,South,181,4.9,4.9,48,0.00,,---,0.00,VWS V14.01,2013-01-26 23:43:00,
2013-01-26 18:48:00,24.6,7.5,30.39,South,181,4.9,4.9,48,0.00,,---,0.00,VWS V14.01,2013-01-26 23:48:00,
2013-01-26 18:53:00,24.4,7.3,30.39,South,181,4.9,4.9,48,0.00,,---,0.00,VWS V14.01,2013-01-26 23:53:00,
2013-01-26 18:58:00,24.4,7.3,30.39,South,181,4.9,4.9,48,0.00,,---,0.00,VWS V14.01,2013-01-26 23:58:00,
2013-01-26 19:03:00,24.3,7.2,30.39,South,181,4.9,4.9,48,0.00,,---,0.00,VWS V14.01,2013-01-27 00:03:00,
2013-01-26 19:08:00,24.1,7.0,30.39,South,181,4.9,4.9,48,0.00,,---,0.00,VWS V14.01,2013-01-27 00:08:00,
2013-01-26 19:13:00,24.1,7.0,30.39,South,181,4.9,4.9,48,0.00,,---,0.00,VWS V14.01,2013-01-27 00:13:00,
2013-01-26 19:18:00,23.9,6.9,30.39,South,181,4.9,4.9,48,0.00,,---,0.00,VWS V14.01,2013-01-27 00:18:00,
2013-01-26 19:23:00,23.7,6.7,30.39,South,181,4.9,4.9,48,0.00,,---,0.00,VWS V14.01,2013-01-27 00:23:00,
2013-01-26 19:28:00,23.5,7.0,30.39,South,181,4.9,4.9,49,0.00,,---,0.00,VWS V14.01,2013-01-27 00:28:00,
2013-01-26 19:33:00,23.4,6.8,30.39,South,181,4.9,4.9,49,0.00,,---,0.00,VWS V14.01,2013-01-27 00:33:00,
2013-01-26 19:39:00,23.2,7.2,30.39,South,181,4.9,4.9,50,0.00,,---,0.00,VWS V14.01,2013-01-27 00:39:00,
2013-01-26 19:44:00,22.8,7.3,30.39,South,181,4.9,4.9,51,0.00,,---,0.00,VWS V14.01,2013-01-27 00:44:00,
2013-01-26 19:49:00,22.5,7.0,30.39,South,181,4.9,4.9,51,0.00,,---,0.00,VWS V14.01,2013-01-27 00:49:00,
2013-01-26 19:54:00,22.3,6.8,30.39,South,181,4.9,4.9,51,0.00,,---,0.00,VWS V14.01,2013-01-27 00:54:00,
2013-01-26 19:59:00,21.9,6.0,30.39,South,181,4.9,4.9,50,0.00,,---,0.00,VWS V14.01,2013-01-27 00:59:00,
2013-01-26 20:04:00,21.6,5.7,30.39,South,181,4.9,4.9,50,0.00,,---,0.00,VWS V14.01,2013-01-27 01:04:00,
2013-01-26 20:09:00,21.2,5.8,30.39,South,181,4.9,4.9,51,0.00,,---,0.00,VWS V14.01,2013-01-27 01:09:00,
2013-01-26 20:14:00,20.8,5.5,30.39,South,181,4.9,4.9,51,0.00,,---,0.00,VWS V14.01,2013-01-27 01:14:00,
2013-01-26 20:19:00,20.7,5.3,30.39,South,181,4.9,4.9,51,0.00,,---,0.00,VWS V14.01,2013-01-27 01:19:00,
2013-01-26 20:24:00,20.3,5.0,30.39,South,181,4.9,4.9,51,0.00,,---,0.00,VWS V14.01,2013-01-27 01:24:00,
2013-01-26 20:29:00,20.1,4.8,30.39,South,181,4.9,4.9,51,0.00,,---,0.00,VWS V14.01,2013-01-27 01:29:00,
2013-01-26 20:34:00,19.8,4.9,30.39,South,181,4.9,4.9,52,0.00,,---,0.00,VWS V14.01,2013-01-27 01:34:00,
2013-01-26 20:39:00,19.6,4.8,30.39,South,181,4.9,4.9,52,0.00,,---,0.00,VWS V14.01,2013-01-27 01:39:00,
2013-01-26 20:44:00,19.6,4.8,30.39,South,181,4.9,4.9,52,0.00,,---,0.00,VWS V14.01,2013-01-27 01:44:00,
2013-01-26 20:49:00,19.4,5.0,30.39,South,181,4.9,4.9,53,0.00,,---,0.00,VWS V14.01,2013-01-27 01:49:00,
2013-01-26 20:54:00,19.4,5.0,30.39,South,181,4.9,4.9,53,0.00,,---,0.00,VWS V14.01,2013-01-27 01:54:00,
2013-01-26 20:59:00,19.2,4.9,30.39,South,181,4.9,4.9,53,0.00,,---,0.00,VWS V14.01,2013-01-27 01:59:00,
2013-01-26 21:04:00,19.2,4.9,30.39,South,181,4.9,4.9,53,0.00,,---,0.00,VWS V14.01,2013-01-27 02:04:00,
2013-01-26 21:09:00,19.0,5.1,30.39,South,181,4.9,4.9,54,0.00,,---,0.00,VWS V14.01,2013-01-27 02:09:00,
2013-01-26 21:14:00,18.7,4.8,30.39,South,181,4.9,4.9,54,0.00,,---,0.00,VWS V14.01,2013-01-27 02:14:00,
2013-01-26 21:19:00,18.3,4.5,30.39,South,181,4.9,4.9,54,0.00,,---,0.00,VWS V14.01,2013-01-27 02:19:00,
2013-01-26 21:24:00,17.6,4.2,30.39,South,181,4.9,4.9,55,0.00,,---,0.00,VWS V14.01,2013-01-27 02:24:00,
2013-01-26 21:29:00,17.2,4.3,30.39,South,181,4.9,4.9,56,0.00,,---,0.00,VWS V14.01,2013-01-27 02:29:00,
2013-01-26 21:34:00,17.1,4.1,30.39,South,181,4.9,4.9,56,0.00,,---,0.00,VWS V14.01,2013-01-27 02:34:00,
2013-01-26 21:39:00,16.9,4.4,30.39,South,181,4.9,4.9,57,0.00,,---,0.00,VWS V14.01,2013-01-27 02:39:00,
2013-01-26 21:44:00,17.1,4.6,30.39,South,181,4.9,4.9,57,0.00,,---,0.00,VWS V14.01,2013-01-27 02:44:00,
2013-01-26 21:49:00,16.9,4.4,30.39,South,181,4.9,4.9,57,0.00,,---,0.00,VWS V14.01,2013-01-27 02:49:00,
2013-01-26 21:54:00,16.9,4.4,30.39,South,181,4.9,4.9,57,0.00,,---,0.00,VWS V14.01,2013-01-27 02:54:00,
2013-01-26 21:59:00,16.9,4.8,30.39,South,181,4.9,4.9,58,0.00,,---,0.00,VWS V14.01,2013-01-27 02:59:00,
2013-01-26 22:04:00,17.1,5.0,30.39,South,181,4.9,4.9,58,0.00,,---,0.00,VWS V14.01,2013-01-27 03:04:00,
2013-01-26 22:09:00,17.2,5.1,30.39,South,181,4.9,4.9,58,0.00,,---,0.00,VWS V14.01,2013-01-27 03:09:00,
2013-01-26 22:14:00,17.4,5.7,30.39,South,181,4.9,4.9,59,0.00,,---,0.00,VWS V14.01,2013-01-27 03:14:00,
2013-01-26 22:19:00,17.4,5.7,30.39,South,181,4.9,4.9,59,0.00,,---,0.00,VWS V14.01,2013-01-27 03:19:00,
2013-01-26 22:25:00,17.4,5.7,30.39,South,181,4.9,4.9,59,0.00,,---,0.00,VWS V14.01,2013-01-27 03:25:00,
2013-01-26 22:30:00,17.4,5.7,30.39,South,181,4.9,4.9,59,0.00,,---,0.00,VWS V14.01,2013-01-27 03:30:00,
2013-01-26 22:35:00,17.4,5.7,30.39,South,181,4.9,4.9,59,0.00,,---,0.00,VWS V14.01,2013-01-27 03:35:00,
2013-01-26 22:40:00,17.4,5.7,30.39,South,181,4.9,4.9,59,0.00,,---,0.00,VWS V14.01,2013-01-27 03:40:00,
2013-01-26 22:45:00,17.4,5.7,30.39,South,181,4.9,4.9,59,0.00,,---,0.00,VWS V14.01,2013-01-27 03:45:00,
2013-01-26 22:50:00,17.4,5.7,30.39,South,181,4.9,4.9,59,0.00,,---,0.00,VWS V14.01,2013-01-27 03:50:00,
2013-01-26 22:55:00,17.4,5.7,30.39,South,181,4.9,4.9,59,0.00,,---,0.00,VWS V14.01,2013-01-27 03:55:00,
2013-01-26 23:00:00,17.4,5.7,30.39,South,181,4.9,4.9,59,0.00,,---,0.00,VWS V14.01,2013-01-27 04:00:00,
2013-01-26 23:05:00,17.4,5.7,30.39,South,181,4.9,4.9,59,0.00,,---,0.00,VWS V14.01,2013-01-27 04:05:00,
2013-01-26 23:10:00,17.4,5.7,30.39,South,181,4.9,4.9,59,0.00,,---,0.00,VWS V14.01,2013-01-27 04:10:00,
2013-01-26 23:15:00,17.4,5.7,30.39,South,181,4.9,4.9,59,0.00,,---,0.00,VWS V14.01,2013-01-27 04:15:00,
2013-01-26 23:20:00,17.4,5.7,30.39,South,181,4.9,4.9,59,0.00,,---,0.00,VWS V14.01,2013-01-27 04:20:00,
2013-01-26 23:25:00,17.4,5.7,30.39,South,181,4.9,4.9,59,0.00,,---,0.00,VWS V14.01,2013-01-27 04:25:00,
2013-01-26 23:30:00,17.4,5.7,30.42,South,181,4.9,4.9,59,0.00,,---,0.00,VWS V14.01,2013-01-27 04:30:00,
2013-01-26 23:35:00,17.6,6.3,30.42,South,181,4.9,4.9,60,0.00,,---,0.00,VWS V14.01,2013-01-27 04:35:00,
2013-01-26 23:40:00,17.6,6.3,30.42,South,181,4.9,4.9,60,0.00,,---,0.00,VWS V14.01,2013-01-27 04:40:00,
2013-01-26 23:45:00,17.8,6.0,30.42,South,181,4.9,4.9,59,0.00,,---,0.00,VWS V14.01,2013-01-27 04:45:00,
2013-01-26 23:50:00,17.8,6.0,30.42,South,181,4.9,4.9,59,0.00,,---,0.00,VWS V14.01,2013-01-27 04:50:00,
2013-01-26 23:55:00,17.8,6.0,30.42,South,181,4.9,4.9,59,0.00,,---,0.00,VWS V14.01,2013-01-27 04:55:00,